This is the latest recevied weather packets stored in our database for station/object F5OWB. If no packets are shown the sender has not sent any weather packets the latest 10 day(s).
| Time | Temp. | Humidity | Pressure | Rain* | Wind** | Luminosity | Snow |
|---|---|---|---|---|---|---|---|
| 1778161500 | 17.22° C | 56% | 1017.7 hPa | 0 mm | - | 700 W/m² | - |
| 1778161438 | 17.22° C | 57% | 1017.7 hPa | 0 mm | - | 705 W/m² | - |
| 1778161384 | 17.22° C | 59% | 1017.7 hPa | 0 mm | - | 705 W/m² | - |
| 1778161317 | 17.22° C | 57% | 1017.6 hPa | 0 mm | - | 705 W/m² | - |
| 1778161257 | 17.22° C | 56% | 1017.7 hPa | 0 mm | - | 705 W/m² | - |
| 1778161198 | 17.22° C | 57% | 1017.7 hPa | 0 mm | - | 705 W/m² | - |
| 1778161136 | 17.78° C | 57% | 1017.7 hPa | 0 mm | - | 708 W/m² | - |
| 1778161070 | 17.78° C | 59% | 1017.7 hPa | 0 mm | - | 710 W/m² | - |
| 1778161010 | 17.78° C | 59% | 1017.7 hPa | 0 mm | - | 712 W/m² | - |
| 1778160949 | 17.78° C | 56% | 1017.7 hPa | 0 mm | - | 715 W/m² | - |
| 1778160890 | 17.78° C | 54% | 1017.7 hPa | 0 mm | - | 719 W/m² | - |
| 1778160830 | 17.78° C | 55% | 1017.7 hPa | 0 mm | - | 719 W/m² | - |
| 1778160770 | 17.78° C | 55% | 1017.8 hPa | 0 mm | - | 719 W/m² | - |
| 1778160709 | 17.78° C | 56% | 1017.8 hPa | 0 mm | - | 717 W/m² | - |
| 1778160652 | 17.22° C | 56% | 1017.8 hPa | 0 mm | - | 719 W/m² | - |
| 1778160589 | 17.22° C | 55% | 1017.8 hPa | 0 mm | - | 722 W/m² | - |
| 1778160532 | 17.22° C | 57% | 1017.8 hPa | 0 mm | - | 722 W/m² | - |
| 1778160473 | 17.22° C | 58% | 1017.8 hPa | 0 mm | - | 724 W/m² | - |
| 1778160409 | 17.22° C | 59% | 1017.8 hPa | 0 mm | - | 722 W/m² | - |
| 1778160350 | 17.22° C | 56% | 1017.8 hPa | 0 mm | - | 728 W/m² | - |
| 1778160292 | 17.22° C | 55% | 1017.8 hPa | 0 mm | - | 733 W/m² | - |
| 1778160232 | 17.22° C | 55% | 1017.8 hPa | 0 mm | - | 738 W/m² | - |
| 1778160174 | 17.22° C | 54% | 1017.8 hPa | 0 mm | - | 742 W/m² | - |
| 1778160109 | 17.22° C | 55% | 1017.8 hPa | 0 mm | - | 738 W/m² | - |
| 1778160049 | 17.22° C | 56% | 1017.8 hPa | 0 mm | - | 738 W/m² | - |
* Rain latest hour (hover to see other rain measurements)
** Current wind speed in m/s (hover to see current wind gust speed)